sensor_id;sensor_type;location;lat;lon;timestamp;P1;durP1;ratioP1;P2;durP2;ratioP2
12826;SDS011;66927;48.812;9.118;2023-03-04T00:02:20;36.80;;;23.27;;
12826;SDS011;66927;48.812;9.118;2023-03-04T00:04:46;36.47;;;23.07;;
12826;SDS011;66927;48.812;9.118;2023-03-04T00:07:12;37.30;;;24.33;;
12826;SDS011;66927;48.812;9.118;2023-03-04T00:09:41;37.00;;;24.00;;
12826;SDS011;66927;48.812;9.118;2023-03-04T00:12:07;33.27;;;22.67;;
12826;SDS011;66927;48.812;9.118;2023-03-04T00:14:33;38.10;;;22.77;;
12826;SDS011;66927;48.812;9.118;2023-03-04T00:16:58;35.50;;;22.10;;
12826;SDS011;66927;48.812;9.118;2023-03-04T00:19:24;34.73;;;23.70;;
12826;SDS011;66927;48.812;9.118;2023-03-04T00:21:50;34.47;;;22.87;;
12826;SDS011;66927;48.812;9.118;2023-03-04T00:24:15;33.00;;;21.47;;
12826;SDS011;66927;48.812;9.118;2023-03-04T00:26:41;35.67;;;22.43;;
12826;SDS011;66927;48.812;9.118;2023-03-04T00:29:07;36.23;;;23.77;;
12826;SDS011;66927;48.812;9.118;2023-03-04T00:31:33;35.97;;;22.90;;
12826;SDS011;66927;48.812;9.118;2023-03-04T00:33:58;35.80;;;23.00;;
12826;SDS011;66927;48.812;9.118;2023-03-04T00:36:24;38.33;;;22.27;;
12826;SDS011;66927;48.812;9.118;2023-03-04T00:38:50;34.77;;;22.10;;
12826;SDS011;66927;48.812;9.118;2023-03-04T00:41:16;35.07;;;22.80;;
12826;SDS011;66927;48.812;9.118;2023-03-04T00:43:41;33.27;;;22.63;;
12826;SDS011;66927;48.812;9.118;2023-03-04T00:46:07;32.87;;;21.07;;
12826;SDS011;66927;48.812;9.118;2023-03-04T00:48:32;34.17;;;22.17;;
12826;SDS011;66927;48.812;9.118;2023-03-04T00:50:58;32.87;;;21.17;;
12826;SDS011;66927;48.812;9.118;2023-03-04T00:53:23;31.27;;;20.57;;
12826;SDS011;66927;48.812;9.118;2023-03-04T00:55:49;34.97;;;20.43;;
12826;SDS011;66927;48.812;9.118;2023-03-04T00:58:15;33.23;;;20.73;;
12826;SDS011;66927;48.812;9.118;2023-03-04T01:00:40;33.00;;;21.30;;
12826;SDS011;66927;48.812;9.118;2023-03-04T01:03:06;31.97;;;20.40;;
12826;SDS011;66927;48.812;9.118;2023-03-04T01:05:32;33.93;;;21.77;;
12826;SDS011;66927;48.812;9.118;2023-03-04T01:07:59;36.47;;;21.10;;
12826;SDS011;66927;48.812;9.118;2023-03-04T01:10:25;30.57;;;20.50;;
12826;SDS011;66927;48.812;9.118;2023-03-04T01:12:51;29.60;;;19.47;;
12826;SDS011;66927;48.812;9.118;2023-03-04T01:15:17;33.17;;;21.30;;
12826;SDS011;66927;48.812;9.118;2023-03-04T01:17:42;34.40;;;20.07;;
12826;SDS011;66927;48.812;9.118;2023-03-04T01:20:08;33.27;;;21.33;;
12826;SDS011;66927;48.812;9.118;2023-03-04T01:22:34;35.77;;;22.33;;
12826;SDS011;66927;48.812;9.118;2023-03-04T01:25:00;34.83;;;21.27;;
12826;SDS011;66927;48.812;9.118;2023-03-04T01:27:26;30.83;;;20.87;;
12826;SDS011;66927;48.812;9.118;2023-03-04T01:29:51;30.90;;;20.63;;
12826;SDS011;66927;48.812;9.118;2023-03-04T01:32:17;34.07;;;21.73;;
12826;SDS011;66927;48.812;9.118;2023-03-04T01:34:42;33.10;;;21.10;;
12826;SDS011;66927;48.812;9.118;2023-03-04T01:37:08;32.40;;;20.03;;
12826;SDS011;66927;48.812;9.118;2023-03-04T01:39:34;34.83;;;21.00;;
12826;SDS011;66927;48.812;9.118;2023-03-04T01:41:59;34.27;;;20.30;;
12826;SDS011;66927;48.812;9.118;2023-03-04T01:44:25;35.60;;;20.83;;
12826;SDS011;66927;48.812;9.118;2023-03-04T01:46:52;36.40;;;21.87;;
12826;SDS011;66927;48.812;9.118;2023-03-04T01:49:19;31.10;;;20.13;;
12826;SDS011;66927;48.812;9.118;2023-03-04T01:51:47;32.87;;;20.67;;
12826;SDS011;66927;48.812;9.118;2023-03-04T01:54:22;31.43;;;20.33;;
12826;SDS011;66927;48.812;9.118;2023-03-04T01:56:48;33.57;;;21.17;;
12826;SDS011;66927;48.812;9.118;2023-03-04T01:59:16;29.57;;;19.07;;
12826;SDS011;66927;48.812;9.118;2023-03-04T02:01:47;29.87;;;18.57;;
12826;SDS011;66927;48.812;9.118;2023-03-04T02:04:14;29.53;;;19.23;;
12826;SDS011;66927;48.812;9.118;2023-03-04T02:06:41;30.83;;;18.23;;
12826;SDS011;66927;48.812;9.118;2023-03-04T02:09:08;29.53;;;19.63;;
12826;SDS011;66927;48.812;9.118;2023-03-04T02:11:34;32.90;;;20.30;;
12826;SDS011;66927;48.812;9.118;2023-03-04T02:14:01;30.83;;;19.57;;
12826;SDS011;66927;48.812;9.118;2023-03-04T02:16:27;28.40;;;18.00;;
12826;SDS011;66927;48.812;9.118;2023-03-04T02:18:53;29.87;;;18.93;;
12826;SDS011;66927;48.812;9.118;2023-03-04T02:21:26;30.53;;;19.87;;
12826;SDS011;66927;48.812;9.118;2023-03-04T02:24:02;30.07;;;18.67;;
12826;SDS011;66927;48.812;9.118;2023-03-04T02:26:46;32.00;;;19.00;;
12826;SDS011;66927;48.812;9.118;2023-03-04T02:29:12;28.50;;;19.20;;
12826;SDS011;66927;48.812;9.118;2023-03-04T02:31:40;30.90;;;19.20;;
12826;SDS011;66927;48.812;9.118;2023-03-04T02:34:12;30.03;;;18.20;;
12826;SDS011;66927;48.812;9.118;2023-03-04T02:36:40;30.67;;;19.77;;
12826;SDS011;66927;48.812;9.118;2023-03-04T02:39:19;28.57;;;20.03;;
12826;SDS011;66927;48.812;9.118;2023-03-04T02:41:56;29.97;;;18.60;;
12826;SDS011;66927;48.812;9.118;2023-03-04T02:46:52;27.67;;;17.70;;
12826;SDS011;66927;48.812;9.118;2023-03-04T02:49:20;28.73;;;18.37;;
12826;SDS011;66927;48.812;9.118;2023-03-04T02:51:49;27.83;;;17.97;;
12826;SDS011;66927;48.812;9.118;2023-03-04T02:54:23;28.00;;;18.60;;
12826;SDS011;66927;48.812;9.118;2023-03-04T02:56:50;30.73;;;17.53;;
12826;SDS011;66927;48.812;9.118;2023-03-04T02:59:17;26.60;;;17.10;;
12826;SDS011;66927;48.812;9.118;2023-03-04T03:01:44;25.40;;;17.40;;
12826;SDS011;66927;48.812;9.118;2023-03-04T03:04:10;27.53;;;17.33;;
12826;SDS011;66927;48.812;9.118;2023-03-04T03:06:37;28.07;;;19.03;;
12826;SDS011;66927;48.812;9.118;2023-03-04T03:09:03;29.47;;;18.60;;
12826;SDS011;66927;48.812;9.118;2023-03-04T03:11:29;31.90;;;19.90;;
12826;SDS011;66927;48.812;9.118;2023-03-04T03:13:55;25.73;;;18.03;;
12826;SDS011;66927;48.812;9.118;2023-03-04T03:16:21;27.53;;;17.77;;
12826;SDS011;66927;48.812;9.118;2023-03-04T03:18:46;32.00;;;18.23;;
12826;SDS011;66927;48.812;9.118;2023-03-04T03:21:12;26.57;;;17.47;;
12826;SDS011;66927;48.812;9.118;2023-03-04T03:23:38;26.80;;;17.77;;
12826;SDS011;66927;48.812;9.118;2023-03-04T03:26:04;26.17;;;17.97;;
12826;SDS011;66927;48.812;9.118;2023-03-04T03:28:30;32.57;;;19.23;;
12826;SDS011;66927;48.812;9.118;2023-03-04T03:30:56;29.10;;;18.27;;
12826;SDS011;66927;48.812;9.118;2023-03-04T03:33:21;36.33;;;19.57;;
12826;SDS011;66927;48.812;9.118;2023-03-04T03:35:47;28.07;;;18.63;;
12826;SDS011;66927;48.812;9.118;2023-03-04T03:38:13;30.40;;;18.27;;
12826;SDS011;66927;48.812;9.118;2023-03-04T03:40:38;28.97;;;18.27;;
12826;SDS011;66927;48.812;9.118;2023-03-04T03:43:04;28.53;;;18.27;;
12826;SDS011;66927;48.812;9.118;2023-03-04T03:45:29;30.20;;;19.07;;
12826;SDS011;66927;48.812;9.118;2023-03-04T03:47:55;29.07;;;19.70;;
12826;SDS011;66927;48.812;9.118;2023-03-04T03:50:21;28.30;;;18.83;;
12826;SDS011;66927;48.812;9.118;2023-03-04T03:52:46;30.47;;;18.43;;
12826;SDS011;66927;48.812;9.118;2023-03-04T03:55:12;29.67;;;19.13;;
12826;SDS011;66927;48.812;9.118;2023-03-04T03:57:38;29.90;;;20.13;;
12826;SDS011;66927;48.812;9.118;2023-03-04T04:00:04;28.33;;;18.87;;
12826;SDS011;66927;48.812;9.118;2023-03-04T04:02:30;27.60;;;18.77;;
12826;SDS011;66927;48.812;9.118;2023-03-04T04:04:56;30.10;;;17.40;;
12826;SDS011;66927;48.812;9.118;2023-03-04T04:07:22;30.33;;;17.97;;
12826;SDS011;66927;48.812;9.118;2023-03-04T04:09:47;27.67;;;17.60;;
12826;SDS011;66927;48.812;9.118;2023-03-04T04:12:13;30.20;;;19.87;;
12826;SDS011;66927;48.812;9.118;2023-03-04T04:14:42;26.47;;;17.77;;
12826;SDS011;66927;48.812;9.118;2023-03-04T04:17:08;30.10;;;18.70;;
12826;SDS011;66927;48.812;9.118;2023-03-04T04:19:34;29.83;;;17.70;;
12826;SDS011;66927;48.812;9.118;2023-03-04T04:22:01;25.37;;;17.77;;
12826;SDS011;66927;48.812;9.118;2023-03-04T04:24:27;28.17;;;18.63;;
12826;SDS011;66927;48.812;9.118;2023-03-04T04:26:53;32.23;;;19.23;;
12826;SDS011;66927;48.812;9.118;2023-03-04T04:29:19;29.10;;;18.97;;
12826;SDS011;66927;48.812;9.118;2023-03-04T04:31:45;30.90;;;18.90;;
12826;SDS011;66927;48.812;9.118;2023-03-04T04:34:10;34.97;;;20.67;;
12826;SDS011;66927;48.812;9.118;2023-03-04T04:36:36;32.60;;;19.33;;
12826;SDS011;66927;48.812;9.118;2023-03-04T04:39:02;26.70;;;17.70;;
12826;SDS011;66927;48.812;9.118;2023-03-04T04:41:29;27.23;;;17.40;;
12826;SDS011;66927;48.812;9.118;2023-03-04T04:44:00;27.20;;;17.47;;
12826;SDS011;66927;48.812;9.118;2023-03-04T04:46:25;27.00;;;17.73;;
12826;SDS011;66927;48.812;9.118;2023-03-04T04:48:51;30.23;;;18.80;;
12826;SDS011;66927;48.812;9.118;2023-03-04T04:51:16;31.17;;;19.13;;
12826;SDS011;66927;48.812;9.118;2023-03-04T04:53:42;27.80;;;17.00;;
12826;SDS011;66927;48.812;9.118;2023-03-04T04:56:12;27.40;;;18.07;;
12826;SDS011;66927;48.812;9.118;2023-03-04T04:58:41;27.77;;;18.07;;
12826;SDS011;66927;48.812;9.118;2023-03-04T05:01:07;33.30;;;18.93;;
12826;SDS011;66927;48.812;9.118;2023-03-04T05:03:34;37.30;;;20.00;;
12826;SDS011;66927;48.812;9.118;2023-03-04T05:06:00;30.70;;;18.73;;
12826;SDS011;66927;48.812;9.118;2023-03-04T05:08:26;28.47;;;18.43;;
12826;SDS011;66927;48.812;9.118;2023-03-04T05:10:52;30.53;;;18.50;;
12826;SDS011;66927;48.812;9.118;2023-03-04T05:13:18;31.63;;;19.77;;
12826;SDS011;66927;48.812;9.118;2023-03-04T05:15:44;28.90;;;17.90;;
12826;SDS011;66927;48.812;9.118;2023-03-04T05:18:10;28.33;;;17.03;;
12826;SDS011;66927;48.812;9.118;2023-03-04T05:20:36;27.40;;;16.83;;
12826;SDS011;66927;48.812;9.118;2023-03-04T05:23:01;26.37;;;16.97;;
12826;SDS011;66927;48.812;9.118;2023-03-04T05:25:27;28.73;;;17.27;;
12826;SDS011;66927;48.812;9.118;2023-03-04T05:27:53;25.63;;;16.83;;
12826;SDS011;66927;48.812;9.118;2023-03-04T05:30:19;29.20;;;18.03;;
12826;SDS011;66927;48.812;9.118;2023-03-04T05:32:44;32.43;;;18.07;;
12826;SDS011;66927;48.812;9.118;2023-03-04T05:35:10;30.23;;;18.07;;
12826;SDS011;66927;48.812;9.118;2023-03-04T05:37:36;27.57;;;16.77;;
12826;SDS011;66927;48.812;9.118;2023-03-04T05:40:01;32.03;;;17.97;;
12826;SDS011;66927;48.812;9.118;2023-03-04T05:42:28;31.80;;;17.87;;
12826;SDS011;66927;48.812;9.118;2023-03-04T05:44:54;28.77;;;17.83;;
12826;SDS011;66927;48.812;9.118;2023-03-04T05:47:20;26.53;;;16.67;;
12826;SDS011;66927;48.812;9.118;2023-03-04T05:49:45;29.53;;;18.53;;
12826;SDS011;66927;48.812;9.118;2023-03-04T05:52:11;29.67;;;18.47;;
12826;SDS011;66927;48.812;9.118;2023-03-04T05:54:37;30.90;;;19.13;;
12826;SDS011;66927;48.812;9.118;2023-03-04T05:57:02;32.30;;;20.70;;
12826;SDS011;66927;48.812;9.118;2023-03-04T05:59:28;37.40;;;20.63;;
12826;SDS011;66927;48.812;9.118;2023-03-04T06:01:53;31.13;;;17.90;;
12826;SDS011;66927;48.812;9.118;2023-03-04T06:04:19;30.70;;;18.33;;
12826;SDS011;66927;48.812;9.118;2023-03-04T06:06:45;29.67;;;17.53;;
12826;SDS011;66927;48.812;9.118;2023-03-04T06:09:11;26.13;;;17.50;;
12826;SDS011;66927;48.812;9.118;2023-03-04T06:11:38;30.97;;;18.83;;
12826;SDS011;66927;48.812;9.118;2023-03-04T06:14:04;30.83;;;18.97;;
12826;SDS011;66927;48.812;9.118;2023-03-04T06:16:29;31.87;;;18.83;;
12826;SDS011;66927;48.812;9.118;2023-03-04T06:18:55;29.33;;;18.67;;
12826;SDS011;66927;48.812;9.118;2023-03-04T06:21:21;34.33;;;21.63;;
12826;SDS011;66927;48.812;9.118;2023-03-04T06:23:47;33.63;;;21.03;;
12826;SDS011;66927;48.812;9.118;2023-03-04T06:26:12;29.83;;;18.97;;
12826;SDS011;66927;48.812;9.118;2023-03-04T06:28:40;29.50;;;18.63;;
12826;SDS011;66927;48.812;9.118;2023-03-04T06:31:09;29.87;;;18.43;;
12826;SDS011;66927;48.812;9.118;2023-03-04T06:33:35;31.03;;;17.07;;
12826;SDS011;66927;48.812;9.118;2023-03-04T06:36:00;34.53;;;19.60;;
12826;SDS011;66927;48.812;9.118;2023-03-04T06:38:26;31.00;;;19.60;;
12826;SDS011;66927;48.812;9.118;2023-03-04T06:40:52;28.17;;;17.27;;
12826;SDS011;66927;48.812;9.118;2023-03-04T06:43:18;31.50;;;17.80;;
12826;SDS011;66927;48.812;9.118;2023-03-04T06:45:44;30.53;;;19.40;;
12826;SDS011;66927;48.812;9.118;2023-03-04T06:48:10;29.77;;;19.30;;
12826;SDS011;66927;48.812;9.118;2023-03-04T06:50:36;29.90;;;18.37;;
12826;SDS011;66927;48.812;9.118;2023-03-04T06:53:04;32.30;;;20.37;;
12826;SDS011;66927;48.812;9.118;2023-03-04T06:55:29;33.67;;;20.93;;
12826;SDS011;66927;48.812;9.118;2023-03-04T06:57:55;34.57;;;20.80;;
12826;SDS011;66927;48.812;9.118;2023-03-04T07:00:21;31.07;;;18.87;;
12826;SDS011;66927;48.812;9.118;2023-03-04T07:02:50;35.80;;;20.30;;
12826;SDS011;66927;48.812;9.118;2023-03-04T07:05:15;31.93;;;19.37;;
12826;SDS011;66927;48.812;9.118;2023-03-04T07:07:41;31.97;;;19.03;;
12826;SDS011;66927;48.812;9.118;2023-03-04T07:10:07;35.47;;;21.10;;
12826;SDS011;66927;48.812;9.118;2023-03-04T07:12:34;34.10;;;20.73;;
12826;SDS011;66927;48.812;9.118;2023-03-04T07:15:00;35.37;;;20.27;;
12826;SDS011;66927;48.812;9.118;2023-03-04T07:17:25;29.23;;;19.13;;
12826;SDS011;66927;48.812;9.118;2023-03-04T07:19:51;32.00;;;19.60;;
12826;SDS011;66927;48.812;9.118;2023-03-04T07:22:17;27.47;;;18.40;;
12826;SDS011;66927;48.812;9.118;2023-03-04T07:24:42;34.63;;;19.70;;
12826;SDS011;66927;48.812;9.118;2023-03-04T07:27:08;36.23;;;21.90;;
12826;SDS011;66927;48.812;9.118;2023-03-04T07:29:34;32.20;;;19.80;;
12826;SDS011;66927;48.812;9.118;2023-03-04T07:31:59;39.30;;;26.27;;
12826;SDS011;66927;48.812;9.118;2023-03-04T07:34:25;31.53;;;21.03;;
12826;SDS011;66927;48.812;9.118;2023-03-04T07:36:50;31.70;;;19.30;;
12826;SDS011;66927;48.812;9.118;2023-03-04T07:39:16;32.33;;;20.17;;
12826;SDS011;66927;48.812;9.118;2023-03-04T07:41:42;33.13;;;18.57;;
12826;SDS011;66927;48.812;9.118;2023-03-04T07:44:09;26.23;;;18.00;;
12826;SDS011;66927;48.812;9.118;2023-03-04T07:46:35;28.97;;;16.80;;
12826;SDS011;66927;48.812;9.118;2023-03-04T07:49:01;24.80;;;16.87;;
12826;SDS011;66927;48.812;9.118;2023-03-04T07:51:27;27.27;;;18.07;;
12826;SDS011;66927;48.812;9.118;2023-03-04T07:53:55;29.20;;;17.63;;
12826;SDS011;66927;48.812;9.118;2023-03-04T07:56:24;26.97;;;16.43;;
12826;SDS011;66927;48.812;9.118;2023-03-04T07:58:51;26.90;;;16.30;;
12826;SDS011;66927;48.812;9.118;2023-03-04T08:01:24;26.77;;;17.27;;
12826;SDS011;66927;48.812;9.118;2023-03-04T08:03:52;25.40;;;16.47;;
12826;SDS011;66927;48.812;9.118;2023-03-04T08:06:18;27.37;;;16.53;;
12826;SDS011;66927;48.812;9.118;2023-03-04T08:08:45;26.70;;;16.80;;
12826;SDS011;66927;48.812;9.118;2023-03-04T08:11:12;29.57;;;19.27;;
12826;SDS011;66927;48.812;9.118;2023-03-04T08:13:43;28.03;;;17.33;;
12826;SDS011;66927;48.812;9.118;2023-03-04T08:16:13;29.87;;;17.73;;
12826;SDS011;66927;48.812;9.118;2023-03-04T08:18:46;30.83;;;18.50;;
12826;SDS011;66927;48.812;9.118;2023-03-04T08:21:20;29.73;;;17.63;;
12826;SDS011;66927;48.812;9.118;2023-03-04T08:23:47;31.93;;;18.67;;
12826;SDS011;66927;48.812;9.118;2023-03-04T08:26:16;31.83;;;17.80;;
12826;SDS011;66927;48.812;9.118;2023-03-04T08:28:43;28.53;;;18.90;;
12826;SDS011;66927;48.812;9.118;2023-03-04T08:31:10;31.63;;;18.27;;
12826;SDS011;66927;48.812;9.118;2023-03-04T08:33:37;30.40;;;18.87;;
12826;SDS011;66927;48.812;9.118;2023-03-04T08:36:02;30.13;;;19.20;;
12826;SDS011;66927;48.812;9.118;2023-03-04T08:38:28;33.33;;;20.00;;
12826;SDS011;66927;48.812;9.118;2023-03-04T08:40:55;28.83;;;19.57;;
12826;SDS011;66927;48.812;9.118;2023-03-04T08:43:22;32.77;;;20.83;;
12826;SDS011;66927;48.812;9.118;2023-03-04T08:45:48;27.63;;;18.07;;
12826;SDS011;66927;48.812;9.118;2023-03-04T08:48:14;30.37;;;18.33;;
12826;SDS011;66927;48.812;9.118;2023-03-04T08:50:41;28.37;;;18.67;;
12826;SDS011;66927;48.812;9.118;2023-03-04T08:53:08;30.53;;;18.50;;
12826;SDS011;66927;48.812;9.118;2023-03-04T08:55:33;28.00;;;17.63;;
12826;SDS011;66927;48.812;9.118;2023-03-04T08:58:01;28.53;;;18.17;;
12826;SDS011;66927;48.812;9.118;2023-03-04T09:00:26;27.37;;;17.53;;
12826;SDS011;66927;48.812;9.118;2023-03-04T09:02:52;24.93;;;17.20;;
12826;SDS011;66927;48.812;9.118;2023-03-04T09:05:19;28.97;;;17.63;;
12826;SDS011;66927;48.812;9.118;2023-03-04T09:07:48;30.90;;;17.40;;
12826;SDS011;66927;48.812;9.118;2023-03-04T09:10:13;25.07;;;16.23;;
12826;SDS011;66927;48.812;9.118;2023-03-04T09:12:39;28.03;;;17.23;;
12826;SDS011;66927;48.812;9.118;2023-03-04T09:15:05;28.23;;;17.47;;
12826;SDS011;66927;48.812;9.118;2023-03-04T09:17:31;27.27;;;17.57;;
12826;SDS011;66927;48.812;9.118;2023-03-04T09:19:57;30.87;;;17.33;;
12826;SDS011;66927;48.812;9.118;2023-03-04T09:22:23;23.97;;;16.23;;
12826;SDS011;66927;48.812;9.118;2023-03-04T09:24:49;27.50;;;16.70;;
12826;SDS011;66927;48.812;9.118;2023-03-04T09:27:14;24.07;;;15.43;;
12826;SDS011;66927;48.812;9.118;2023-03-04T09:29:40;25.70;;;16.97;;
12826;SDS011;66927;48.812;9.118;2023-03-04T09:32:07;25.40;;;16.30;;
12826;SDS011;66927;48.812;9.118;2023-03-04T09:34:32;31.83;;;17.10;;
12826;SDS011;66927;48.812;9.118;2023-03-04T09:36:58;26.30;;;16.97;;
12826;SDS011;66927;48.812;9.118;2023-03-04T09:39:24;24.37;;;16.33;;
12826;SDS011;66927;48.812;9.118;2023-03-04T09:41:50;24.30;;;16.07;;
12826;SDS011;66927;48.812;9.118;2023-03-04T09:44:32;25.17;;;17.33;;
12826;SDS011;66927;48.812;9.118;2023-03-04T09:47:03;24.13;;;15.97;;
12826;SDS011;66927;48.812;9.118;2023-03-04T09:49:32;22.93;;;16.60;;
12826;SDS011;66927;48.812;9.118;2023-03-04T10:11:34;29.63;;;18.43;;
12826;SDS011;66927;48.812;9.118;2023-03-04T10:17:29;29.93;;;19.47;;
12826;SDS011;66927;48.812;9.118;2023-03-04T10:22:27;26.50;;;19.10;;
12826;SDS011;66927;48.812;9.118;2023-03-04T10:25:00;26.83;;;19.00;;
12826;SDS011;66927;48.812;9.118;2023-03-04T10:27:42;29.27;;;20.87;;
12826;SDS011;66927;48.812;9.118;2023-03-04T10:30:29;27.77;;;20.67;;
12826;SDS011;66927;48.812;9.118;2023-03-04T10:33:11;30.80;;;22.27;;
12826;SDS011;66927;48.812;9.118;2023-03-04T10:35:42;29.47;;;20.77;;
12826;SDS011;66927;48.812;9.118;2023-03-04T10:38:10;28.07;;;20.63;;
12826;SDS011;66927;48.812;9.118;2023-03-04T10:40:40;29.63;;;20.87;;
12826;SDS011;66927;48.812;9.118;2023-03-04T10:43:40;32.50;;;23.20;;
12826;SDS011;66927;48.812;9.118;2023-03-04T10:45:58;34.93;;;25.10;;
12826;SDS011;66927;48.812;9.118;2023-03-04T10:48:26;32.20;;;23.73;;
12826;SDS011;66927;48.812;9.118;2023-03-04T10:50:53;32.93;;;23.53;;
12826;SDS011;66927;48.812;9.118;2023-03-04T10:54:07;36.53;;;25.40;;
12826;SDS011;66927;48.812;9.118;2023-03-04T11:04:37;36.50;;;25.27;;
12826;SDS011;66927;48.812;9.118;2023-03-04T11:07:07;35.60;;;26.07;;
12826;SDS011;66927;48.812;9.118;2023-03-04T11:09:34;36.77;;;26.03;;
12826;SDS011;66927;48.812;9.118;2023-03-04T11:12:01;37.23;;;26.23;;
12826;SDS011;66927;48.812;9.118;2023-03-04T11:14:35;40.87;;;28.50;;
12826;SDS011;66927;48.812;9.118;2023-03-04T11:17:21;38.10;;;26.20;;
12826;SDS011;66927;48.812;9.118;2023-03-04T11:22:39;39.13;;;27.37;;
12826;SDS011;66927;48.812;9.118;2023-03-04T11:25:14;38.60;;;27.53;;
12826;SDS011;66927;48.812;9.118;2023-03-04T11:27:52;38.67;;;28.17;;
12826;SDS011;66927;48.812;9.118;2023-03-04T11:33:11;39.40;;;27.67;;
12826;SDS011;66927;48.812;9.118;2023-03-04T11:35:46;42.10;;;30.17;;
12826;SDS011;66927;48.812;9.118;2023-03-04T11:38:19;43.03;;;29.30;;
12826;SDS011;66927;48.812;9.118;2023-03-04T11:40:49;46.37;;;30.50;;
12826;SDS011;66927;48.812;9.118;2023-03-04T11:43:33;48.37;;;30.73;;
12826;SDS011;66927;48.812;9.118;2023-03-04T11:51:18;41.93;;;29.80;;
12826;SDS011;66927;48.812;9.118;2023-03-04T11:56:43;41.77;;;28.30;;
12826;SDS011;66927;48.812;9.118;2023-03-04T11:59:13;37.43;;;26.50;;
12826;SDS011;66927;48.812;9.118;2023-03-04T12:02:19;38.13;;;26.70;;
12826;SDS011;66927;48.812;9.118;2023-03-04T12:19:20;42.90;;;29.17;;
12826;SDS011;66927;48.812;9.118;2023-03-04T12:21:33;41.43;;;29.53;;
12826;SDS011;66927;48.812;9.118;2023-03-04T12:24:25;40.00;;;28.77;;
12826;SDS011;66927;48.812;9.118;2023-03-04T12:27:12;44.17;;;28.97;;
12826;SDS011;66927;48.812;9.118;2023-03-04T12:30:04;46.77;;;33.37;;
12826;SDS011;66927;48.812;9.118;2023-03-04T12:32:49;42.50;;;30.17;;
12826;SDS011;66927;48.812;9.118;2023-03-04T12:35:31;41.43;;;29.20;;
12826;SDS011;66927;48.812;9.118;2023-03-04T12:41:02;42.40;;;27.83;;
12826;SDS011;66927;48.812;9.118;2023-03-04T12:43:50;42.13;;;29.73;;
12826;SDS011;66927;48.812;9.118;2023-03-04T12:54:24;41.73;;;29.20;;
12826;SDS011;66927;48.812;9.118;2023-03-04T12:57:41;47.13;;;29.73;;
12826;SDS011;66927;48.812;9.118;2023-03-04T12:59:59;47.43;;;30.30;;
12826;SDS011;66927;48.812;9.118;2023-03-04T13:10:58;44.77;;;28.13;;
12826;SDS011;66927;48.812;9.118;2023-03-04T13:13:34;41.30;;;27.60;;
12826;SDS011;66927;48.812;9.118;2023-03-04T13:18:42;39.63;;;27.00;;
12826;SDS011;66927;48.812;9.118;2023-03-04T13:21:17;39.73;;;26.50;;
12826;SDS011;66927;48.812;9.118;2023-03-04T13:23:47;36.73;;;25.13;;
12826;SDS011;66927;48.812;9.118;2023-03-04T13:26:23;35.73;;;24.43;;
12826;SDS011;66927;48.812;9.118;2023-03-04T13:28:53;40.00;;;24.70;;
12826;SDS011;66927;48.812;9.118;2023-03-04T13:31:43;34.77;;;24.70;;
12826;SDS011;66927;48.812;9.118;2023-03-04T13:34:49;40.67;;;22.93;;
12826;SDS011;66927;48.812;9.118;2023-03-04T13:42:44;26.07;;;17.53;;
12826;SDS011;66927;48.812;9.118;2023-03-04T13:45:30;24.07;;;16.40;;
12826;SDS011;66927;48.812;9.118;2023-03-04T13:47:59;28.70;;;18.03;;
12826;SDS011;66927;48.812;9.118;2023-03-04T13:50:37;27.20;;;17.23;;
12826;SDS011;66927;48.812;9.118;2023-03-04T13:58:42;26.77;;;18.27;;
12826;SDS011;66927;48.812;9.118;2023-03-04T14:02:10;26.43;;;17.60;;
12826;SDS011;66927;48.812;9.118;2023-03-04T14:04:37;25.87;;;15.50;;
12826;SDS011;66927;48.812;9.118;2023-03-04T14:07:00;23.63;;;15.03;;
12826;SDS011;66927;48.812;9.118;2023-03-04T14:09:31;25.07;;;14.30;;
12826;SDS011;66927;48.812;9.118;2023-03-04T14:12:11;28.13;;;17.17;;
12826;SDS011;66927;48.812;9.118;2023-03-04T14:14:42;33.70;;;17.80;;
12826;SDS011;66927;48.812;9.118;2023-03-04T14:17:25;28.90;;;17.43;;
12826;SDS011;66927;48.812;9.118;2023-03-04T14:20:01;28.57;;;18.33;;
12826;SDS011;66927;48.812;9.118;2023-03-04T14:22:29;30.10;;;16.43;;
12826;SDS011;66927;48.812;9.118;2023-03-04T14:27:43;28.83;;;18.07;;
12826;SDS011;66927;48.812;9.118;2023-03-04T14:30:28;37.73;;;17.80;;
12826;SDS011;66927;48.812;9.118;2023-03-04T14:32:55;27.03;;;16.23;;
12826;SDS011;66927;48.812;9.118;2023-03-04T14:35:24;30.50;;;16.90;;
12826;SDS011;66927;48.812;9.118;2023-03-04T14:37:53;31.50;;;17.60;;
12826;SDS011;66927;48.812;9.118;2023-03-04T14:40:32;30.97;;;17.27;;
12826;SDS011;66927;48.812;9.118;2023-03-04T14:43:15;32.67;;;19.70;;
12826;SDS011;66927;48.812;9.118;2023-03-04T14:45:44;34.43;;;19.63;;
12826;SDS011;66927;48.812;9.118;2023-03-04T14:49:14;32.93;;;19.83;;
12826;SDS011;66927;48.812;9.118;2023-03-04T14:54:22;29.07;;;17.53;;
12826;SDS011;66927;48.812;9.118;2023-03-04T14:57:23;25.53;;;16.80;;
12826;SDS011;66927;48.812;9.118;2023-03-04T14:59:50;39.00;;;19.77;;
12826;SDS011;66927;48.812;9.118;2023-03-04T15:02:17;36.03;;;20.00;;
12826;SDS011;66927;48.812;9.118;2023-03-04T15:04:44;30.27;;;18.50;;
12826;SDS011;66927;48.812;9.118;2023-03-04T15:07:15;34.20;;;19.27;;
12826;SDS011;66927;48.812;9.118;2023-03-04T15:09:48;33.57;;;19.23;;
12826;SDS011;66927;48.812;9.118;2023-03-04T15:12:21;32.07;;;18.17;;
12826;SDS011;66927;48.812;9.118;2023-03-04T15:14:51;30.27;;;18.23;;
12826;SDS011;66927;48.812;9.118;2023-03-04T15:17:22;31.47;;;19.37;;
12826;SDS011;66927;48.812;9.118;2023-03-04T15:20:35;34.10;;;19.00;;
12826;SDS011;66927;48.812;9.118;2023-03-04T15:25:12;30.97;;;17.53;;
12826;SDS011;66927;48.812;9.118;2023-03-04T15:27:43;33.27;;;19.30;;
12826;SDS011;66927;48.812;9.118;2023-03-04T15:30:17;33.30;;;20.47;;
12826;SDS011;66927;48.812;9.118;2023-03-04T15:32:46;33.47;;;20.40;;
12826;SDS011;66927;48.812;9.118;2023-03-04T15:35:12;29.13;;;18.50;;
12826;SDS011;66927;48.812;9.118;2023-03-04T15:37:39;32.93;;;20.77;;
12826;SDS011;66927;48.812;9.118;2023-03-04T15:40:39;33.30;;;20.23;;
12826;SDS011;66927;48.812;9.118;2023-03-04T15:43:04;39.03;;;22.90;;
12826;SDS011;66927;48.812;9.118;2023-03-04T15:45:31;38.40;;;21.83;;
12826;SDS011;66927;48.812;9.118;2023-03-04T15:48:05;34.83;;;21.17;;
12826;SDS011;66927;48.812;9.118;2023-03-04T15:50:37;34.73;;;21.37;;
12826;SDS011;66927;48.812;9.118;2023-03-04T15:53:07;34.13;;;20.27;;
12826;SDS011;66927;48.812;9.118;2023-03-04T15:55:38;33.60;;;21.20;;
12826;SDS011;66927;48.812;9.118;2023-03-04T15:58:03;33.97;;;22.07;;
12826;SDS011;66927;48.812;9.118;2023-03-04T16:00:30;35.17;;;22.37;;
12826;SDS011;66927;48.812;9.118;2023-03-04T16:02:57;36.10;;;21.40;;
12826;SDS011;66927;48.812;9.118;2023-03-04T16:05:23;29.87;;;18.57;;
12826;SDS011;66927;48.812;9.118;2023-03-04T16:07:49;36.57;;;20.27;;
12826;SDS011;66927;48.812;9.118;2023-03-04T16:10:17;33.93;;;19.73;;
12826;SDS011;66927;48.812;9.118;2023-03-04T16:12:44;36.63;;;21.30;;
12826;SDS011;66927;48.812;9.118;2023-03-04T16:15:17;40.57;;;21.83;;
12826;SDS011;66927;48.812;9.118;2023-03-04T16:17:45;50.23;;;19.47;;
12826;SDS011;66927;48.812;9.118;2023-03-04T16:20:12;32.73;;;18.67;;